sensor_id;sensor_type;location;lat;lon;timestamp;temperature;humidity
24162;DHT22;12318;51.262;7.066;2023-05-13T00:00:59;13.50;99.90
24162;DHT22;12318;51.262;7.066;2023-05-13T00:03:25;13.50;99.90
24162;DHT22;12318;51.262;7.066;2023-05-13T00:05:53;13.30;99.90
24162;DHT22;12318;51.262;7.066;2023-05-13T00:08:19;13.20;99.90
24162;DHT22;12318;51.262;7.066;2023-05-13T00:10:45;13.20;99.90
24162;DHT22;12318;51.262;7.066;2023-05-13T00:13:11;13.00;99.90
24162;DHT22;12318;51.262;7.066;2023-05-13T00:15:40;12.80;99.90
24162;DHT22;12318;51.262;7.066;2023-05-13T00:18:09;12.60;99.90
24162;DHT22;12318;51.262;7.066;2023-05-13T00:20:38;12.60;99.90
24162;DHT22;12318;51.262;7.066;2023-05-13T00:23:04;12.60;99.90
24162;DHT22;12318;51.262;7.066;2023-05-13T00:25:29;12.60;99.90
24162;DHT22;12318;51.262;7.066;2023-05-13T00:27:55;12.60;99.90
24162;DHT22;12318;51.262;7.066;2023-05-13T00:30:24;12.70;99.90
24162;DHT22;12318;51.262;7.066;2023-05-13T00:33:02;12.60;99.90
24162;DHT22;12318;51.262;7.066;2023-05-13T00:35:30;12.50;99.90
24162;DHT22;12318;51.262;7.066;2023-05-13T00:38:01;12.30;99.90
24162;DHT22;12318;51.262;7.066;2023-05-13T00:40:27;12.30;99.90
24162;DHT22;12318;51.262;7.066;2023-05-13T00:42:53;12.40;99.90
24162;DHT22;12318;51.262;7.066;2023-05-13T00:45:21;12.40;99.90
24162;DHT22;12318;51.262;7.066;2023-05-13T00:47:47;12.50;99.90
24162;DHT22;12318;51.262;7.066;2023-05-13T00:53:19;12.60;99.90
24162;DHT22;12318;51.262;7.066;2023-05-13T00:56:09;12.60;99.90
24162;DHT22;12318;51.262;7.066;2023-05-13T00:59:12;12.70;99.90
24162;DHT22;12318;51.262;7.066;2023-05-13T01:07:43;12.90;99.90
24162;DHT22;12318;51.262;7.066;2023-05-13T01:10:46;12.80;99.90
24162;DHT22;12318;51.262;7.066;2023-05-13T01:13:29;12.80;99.90
24162;DHT22;12318;51.262;7.066;2023-05-13T01:16:10;12.60;99.90
24162;DHT22;12318;51.262;7.066;2023-05-13T01:18:41;12.60;99.90
24162;DHT22;12318;51.262;7.066;2023-05-13T01:21:27;12.60;99.90
24162;DHT22;12318;51.262;7.066;2023-05-13T01:27:27;12.70;99.90
24162;DHT22;12318;51.262;7.066;2023-05-13T01:30:16;12.70;99.90
24162;DHT22;12318;51.262;7.066;2023-05-13T01:32:45;12.80;99.90
24162;DHT22;12318;51.262;7.066;2023-05-13T01:35:12;12.80;99.90
24162;DHT22;12318;51.262;7.066;2023-05-13T01:37:42;12.80;99.90
24162;DHT22;12318;51.262;7.066;2023-05-13T01:40:15;12.80;99.90
24162;DHT22;12318;51.262;7.066;2023-05-13T01:42:41;12.60;99.90
24162;DHT22;12318;51.262;7.066;2023-05-13T01:45:07;12.60;99.90
24162;DHT22;12318;51.262;7.066;2023-05-13T01:47:33;12.60;99.90
24162;DHT22;12318;51.262;7.066;2023-05-13T01:50:05;12.70;99.90
24162;DHT22;12318;51.262;7.066;2023-05-13T01:52:31;12.60;99.90
24162;DHT22;12318;51.262;7.066;2023-05-13T01:54:56;12.60;99.90
24162;DHT22;12318;51.262;7.066;2023-05-13T01:57:22;12.60;99.90
24162;DHT22;12318;51.262;7.066;2023-05-13T01:59:48;12.60;99.90
24162;DHT22;12318;51.262;7.066;2023-05-13T02:02:14;12.60;99.90
24162;DHT22;12318;51.262;7.066;2023-05-13T02:04:40;12.60;99.90
24162;DHT22;12318;51.262;7.066;2023-05-13T02:07:06;12.60;99.90
24162;DHT22;12318;51.262;7.066;2023-05-13T02:09:35;12.50;99.90
24162;DHT22;12318;51.262;7.066;2023-05-13T02:12:00;12.40;99.90
24162;DHT22;12318;51.262;7.066;2023-05-13T02:14:26;12.40;99.90
24162;DHT22;12318;51.262;7.066;2023-05-13T02:16:52;12.40;99.90
24162;DHT22;12318;51.262;7.066;2023-05-13T02:19:18;12.40;99.90
24162;DHT22;12318;51.262;7.066;2023-05-13T02:21:44;12.40;99.90
24162;DHT22;12318;51.262;7.066;2023-05-13T02:24:10;12.40;99.90
24162;DHT22;12318;51.262;7.066;2023-05-13T02:26:36;12.40;99.90
24162;DHT22;12318;51.262;7.066;2023-05-13T02:31:52;12.40;99.90
24162;DHT22;12318;51.262;7.066;2023-05-13T02:34:22;12.40;99.90
24162;DHT22;12318;51.262;7.066;2023-05-13T02:36:48;12.30;99.90
24162;DHT22;12318;51.262;7.066;2023-05-13T02:39:17;12.30;99.90
24162;DHT22;12318;51.262;7.066;2023-05-13T02:41:42;12.20;99.90
24162;DHT22;12318;51.262;7.066;2023-05-13T02:44:11;12.10;99.90
24162;DHT22;12318;51.262;7.066;2023-05-13T02:46:36;12.10;99.90
24162;DHT22;12318;51.262;7.066;2023-05-13T02:49:13;12.10;99.90
24162;DHT22;12318;51.262;7.066;2023-05-13T02:51:38;12.10;99.90
24162;DHT22;12318;51.262;7.066;2023-05-13T02:54:04;12.20;99.90
24162;DHT22;12318;51.262;7.066;2023-05-13T02:56:30;12.30;99.90
24162;DHT22;12318;51.262;7.066;2023-05-13T02:58:57;12.30;99.90
24162;DHT22;12318;51.262;7.066;2023-05-13T03:01:23;12.10;99.90
24162;DHT22;12318;51.262;7.066;2023-05-13T03:03:50;12.10;99.90
24162;DHT22;12318;51.262;7.066;2023-05-13T03:06:19;12.10;99.90
24162;DHT22;12318;51.262;7.066;2023-05-13T03:08:45;12.00;99.90
24162;DHT22;12318;51.262;7.066;2023-05-13T03:11:11;11.90;99.90
24162;DHT22;12318;51.262;7.066;2023-05-13T03:13:40;12.10;99.90
24162;DHT22;12318;51.262;7.066;2023-05-13T03:16:08;12.00;99.90
24162;DHT22;12318;51.262;7.066;2023-05-13T03:18:35;12.00;99.90
24162;DHT22;12318;51.262;7.066;2023-05-13T03:21:00;12.00;99.90
24162;DHT22;12318;51.262;7.066;2023-05-13T03:23:26;11.90;99.90
24162;DHT22;12318;51.262;7.066;2023-05-13T03:25:54;11.80;99.90
24162;DHT22;12318;51.262;7.066;2023-05-13T03:28:22;11.80;99.90
24162;DHT22;12318;51.262;7.066;2023-05-13T03:30:51;11.80;99.90
24162;DHT22;12318;51.262;7.066;2023-05-13T03:33:17;11.90;99.90
24162;DHT22;12318;51.262;7.066;2023-05-13T03:35:45;11.90;99.90
24162;DHT22;12318;51.262;7.066;2023-05-13T03:38:13;11.70;99.90
24162;DHT22;12318;51.262;7.066;2023-05-13T03:40:39;11.90;99.90
24162;DHT22;12318;51.262;7.066;2023-05-13T03:43:05;12.00;99.90
24162;DHT22;12318;51.262;7.066;2023-05-13T03:45:33;12.10;99.90
24162;DHT22;12318;51.262;7.066;2023-05-13T03:47:59;12.00;99.90
24162;DHT22;12318;51.262;7.066;2023-05-13T03:50:25;11.90;99.90
24162;DHT22;12318;51.262;7.066;2023-05-13T03:52:51;11.90;99.90
24162;DHT22;12318;51.262;7.066;2023-05-13T03:55:17;11.80;99.90
24162;DHT22;12318;51.262;7.066;2023-05-13T03:57:46;11.70;99.90
24162;DHT22;12318;51.262;7.066;2023-05-13T04:00:12;11.70;99.90
24162;DHT22;12318;51.262;7.066;2023-05-13T04:02:38;11.60;99.90
24162;DHT22;12318;51.262;7.066;2023-05-13T04:05:04;11.50;99.90
24162;DHT22;12318;51.262;7.066;2023-05-13T04:07:30;11.50;99.90
24162;DHT22;12318;51.262;7.066;2023-05-13T04:09:56;11.50;99.90
24162;DHT22;12318;51.262;7.066;2023-05-13T04:12:22;11.40;99.90
24162;DHT22;12318;51.262;7.066;2023-05-13T04:14:48;11.40;99.90
24162;DHT22;12318;51.262;7.066;2023-05-13T04:17:13;11.50;99.90
24162;DHT22;12318;51.262;7.066;2023-05-13T04:19:39;11.50;99.90
24162;DHT22;12318;51.262;7.066;2023-05-13T04:22:06;11.60;99.90
24162;DHT22;12318;51.262;7.066;2023-05-13T04:24:32;11.60;99.90
24162;DHT22;12318;51.262;7.066;2023-05-13T04:26:58;11.60;99.90
24162;DHT22;12318;51.262;7.066;2023-05-13T04:29:23;11.50;99.90
24162;DHT22;12318;51.262;7.066;2023-05-13T04:31:49;11.50;99.90
24162;DHT22;12318;51.262;7.066;2023-05-13T04:34:15;11.40;99.90
24162;DHT22;12318;51.262;7.066;2023-05-13T04:36:41;11.40;99.90
24162;DHT22;12318;51.262;7.066;2023-05-13T04:39:07;11.40;99.90
24162;DHT22;12318;51.262;7.066;2023-05-13T04:41:34;11.30;99.90
24162;DHT22;12318;51.262;7.066;2023-05-13T04:44:00;11.30;99.90
24162;DHT22;12318;51.262;7.066;2023-05-13T04:46:26;11.30;99.90
24162;DHT22;12318;51.262;7.066;2023-05-13T04:48:52;11.30;99.90
24162;DHT22;12318;51.262;7.066;2023-05-13T04:51:19;11.40;99.90
24162;DHT22;12318;51.262;7.066;2023-05-13T04:53:45;11.40;99.90
24162;DHT22;12318;51.262;7.066;2023-05-13T04:56:11;11.50;99.90
24162;DHT22;12318;51.262;7.066;2023-05-13T04:58:36;11.60;99.90
24162;DHT22;12318;51.262;7.066;2023-05-13T05:01:02;11.60;99.90
24162;DHT22;12318;51.262;7.066;2023-05-13T05:03:28;11.70;99.90
24162;DHT22;12318;51.262;7.066;2023-05-13T05:05:54;11.90;99.90
24162;DHT22;12318;51.262;7.066;2023-05-13T05:08:19;12.00;99.90
24162;DHT22;12318;51.262;7.066;2023-05-13T05:10:45;12.10;99.90
24162;DHT22;12318;51.262;7.066;2023-05-13T05:13:11;12.10;99.90
24162;DHT22;12318;51.262;7.066;2023-05-13T05:15:37;12.10;99.90
24162;DHT22;12318;51.262;7.066;2023-05-13T05:18:03;12.20;99.90
24162;DHT22;12318;51.262;7.066;2023-05-13T05:20:30;12.30;99.90
24162;DHT22;12318;51.262;7.066;2023-05-13T05:22:56;12.40;99.90
24162;DHT22;12318;51.262;7.066;2023-05-13T05:25:22;12.50;99.90
24162;DHT22;12318;51.262;7.066;2023-05-13T05:27:51;12.60;99.90
24162;DHT22;12318;51.262;7.066;2023-05-13T05:30:17;12.60;99.90
24162;DHT22;12318;51.262;7.066;2023-05-13T05:32:43;12.50;99.90
24162;DHT22;12318;51.262;7.066;2023-05-13T05:35:09;12.50;99.90
24162;DHT22;12318;51.262;7.066;2023-05-13T05:37:35;12.40;99.90
24162;DHT22;12318;51.262;7.066;2023-05-13T05:40:01;12.50;99.90
24162;DHT22;12318;51.262;7.066;2023-05-13T05:42:28;12.60;99.90
24162;DHT22;12318;51.262;7.066;2023-05-13T05:44:53;12.60;99.90
24162;DHT22;12318;51.262;7.066;2023-05-13T05:47:19;12.70;99.90
24162;DHT22;12318;51.262;7.066;2023-05-13T05:49:45;12.80;99.90
24162;DHT22;12318;51.262;7.066;2023-05-13T05:52:11;12.90;99.90
24162;DHT22;12318;51.262;7.066;2023-05-13T05:54:37;12.90;99.90
24162;DHT22;12318;51.262;7.066;2023-05-13T05:57:03;13.00;99.90
24162;DHT22;12318;51.262;7.066;2023-05-13T05:59:29;13.00;99.90
24162;DHT22;12318;51.262;7.066;2023-05-13T06:01:55;13.20;99.90
24162;DHT22;12318;51.262;7.066;2023-05-13T06:04:21;13.30;99.90
24162;DHT22;12318;51.262;7.066;2023-05-13T06:06:46;13.30;99.90
24162;DHT22;12318;51.262;7.066;2023-05-13T06:09:12;13.40;99.90
24162;DHT22;12318;51.262;7.066;2023-05-13T06:11:38;13.40;99.90
24162;DHT22;12318;51.262;7.066;2023-05-13T06:14:04;13.60;99.90
24162;DHT22;12318;51.262;7.066;2023-05-13T06:16:30;13.60;99.90
24162;DHT22;12318;51.262;7.066;2023-05-13T06:18:56;13.70;99.90
24162;DHT22;12318;51.262;7.066;2023-05-13T06:21:22;13.80;99.90
24162;DHT22;12318;51.262;7.066;2023-05-13T06:23:47;13.90;99.90
24162;DHT22;12318;51.262;7.066;2023-05-13T06:26:13;14.10;99.90
24162;DHT22;12318;51.262;7.066;2023-05-13T06:28:39;14.30;99.90
24162;DHT22;12318;51.262;7.066;2023-05-13T06:31:05;14.50;99.90
24162;DHT22;12318;51.262;7.066;2023-05-13T06:33:31;14.70;99.90
24162;DHT22;12318;51.262;7.066;2023-05-13T06:35:56;14.80;99.90
24162;DHT22;12318;51.262;7.066;2023-05-13T06:38:22;15.00;99.90
24162;DHT22;12318;51.262;7.066;2023-05-13T06:40:48;15.00;99.90
24162;DHT22;12318;51.262;7.066;2023-05-13T06:43:14;15.10;99.90
24162;DHT22;12318;51.262;7.066;2023-05-13T06:45:41;15.20;99.90
24162;DHT22;12318;51.262;7.066;2023-05-13T06:48:07;15.30;99.90
24162;DHT22;12318;51.262;7.066;2023-05-13T06:50:33;15.50;99.80
24162;DHT22;12318;51.262;7.066;2023-05-13T06:52:59;15.60;99.20
24162;DHT22;12318;51.262;7.066;2023-05-13T06:55:24;15.50;98.40
24162;DHT22;12318;51.262;7.066;2023-05-13T06:57:50;15.10;98.20
24162;DHT22;12318;51.262;7.066;2023-05-13T07:00:17;14.70;99.30
24162;DHT22;12318;51.262;7.066;2023-05-13T07:02:43;14.30;99.90
24162;DHT22;12318;51.262;7.066;2023-05-13T07:05:10;14.10;99.90
24162;DHT22;12318;51.262;7.066;2023-05-13T07:07:36;14.20;99.90
24162;DHT22;12318;51.262;7.066;2023-05-13T07:10:02;14.30;99.90
24162;DHT22;12318;51.262;7.066;2023-05-13T07:12:28;14.30;99.90
24162;DHT22;12318;51.262;7.066;2023-05-13T07:14:54;14.30;99.90
24162;DHT22;12318;51.262;7.066;2023-05-13T07:17:22;14.40;99.90
24162;DHT22;12318;51.262;7.066;2023-05-13T07:19:48;14.40;99.90
24162;DHT22;12318;51.262;7.066;2023-05-13T07:22:14;14.40;99.90
24162;DHT22;12318;51.262;7.066;2023-05-13T07:24:40;14.20;99.90
24162;DHT22;12318;51.262;7.066;2023-05-13T07:27:06;14.10;99.90
24162;DHT22;12318;51.262;7.066;2023-05-13T07:29:32;14.20;99.90
24162;DHT22;12318;51.262;7.066;2023-05-13T07:32:06;14.10;99.90
24162;DHT22;12318;51.262;7.066;2023-05-13T07:34:31;14.00;99.90
24162;DHT22;12318;51.262;7.066;2023-05-13T07:36:57;14.00;99.90
24162;DHT22;12318;51.262;7.066;2023-05-13T07:39:23;13.90;99.90
24162;DHT22;12318;51.262;7.066;2023-05-13T07:41:50;13.90;99.90
24162;DHT22;12318;51.262;7.066;2023-05-13T07:44:15;13.80;99.90
24162;DHT22;12318;51.262;7.066;2023-05-13T07:46:41;14.00;99.90
24162;DHT22;12318;51.262;7.066;2023-05-13T07:49:07;13.90;99.90
24162;DHT22;12318;51.262;7.066;2023-05-13T07:51:34;13.90;99.90
24162;DHT22;12318;51.262;7.066;2023-05-13T07:54:00;13.90;99.90
24162;DHT22;12318;51.262;7.066;2023-05-13T07:56:26;14.10;99.90
24162;DHT22;12318;51.262;7.066;2023-05-13T07:58:51;14.30;99.90
24162;DHT22;12318;51.262;7.066;2023-05-13T08:01:18;14.50;99.90
24162;DHT22;12318;51.262;7.066;2023-05-13T08:03:43;14.70;99.90
24162;DHT22;12318;51.262;7.066;2023-05-13T08:06:09;15.10;99.90
24162;DHT22;12318;51.262;7.066;2023-05-13T08:08:35;15.50;99.90
24162;DHT22;12318;51.262;7.066;2023-05-13T08:11:01;15.80;97.70
24162;DHT22;12318;51.262;7.066;2023-05-13T08:13:27;16.20;96.80
24162;DHT22;12318;51.262;7.066;2023-05-13T08:15:53;16.50;95.30
24162;DHT22;12318;51.262;7.066;2023-05-13T08:18:18;16.70;93.00
24162;DHT22;12318;51.262;7.066;2023-05-13T08:20:45;17.00;92.90
24162;DHT22;12318;51.262;7.066;2023-05-13T08:23:11;17.10;92.10
24162;DHT22;12318;51.262;7.066;2023-05-13T08:25:36;17.40;91.80
24162;DHT22;12318;51.262;7.066;2023-05-13T08:28:02;17.50;89.90
24162;DHT22;12318;51.262;7.066;2023-05-13T08:30:28;17.60;91.30
24162;DHT22;12318;51.262;7.066;2023-05-13T08:32:54;17.80;91.90
24162;DHT22;12318;51.262;7.066;2023-05-13T08:35:19;17.80;90.20
24162;DHT22;12318;51.262;7.066;2023-05-13T08:37:46;18.20;89.80
24162;DHT22;12318;51.262;7.066;2023-05-13T08:40:11;18.20;84.60
24162;DHT22;12318;51.262;7.066;2023-05-13T08:42:38;18.10;80.00
24162;DHT22;12318;51.262;7.066;2023-05-13T08:45:07;18.20;77.40
24162;DHT22;12318;51.262;7.066;2023-05-13T08:47:54;18.40;77.80
24162;DHT22;12318;51.262;7.066;2023-05-13T08:50:21;18.60;76.80
24162;DHT22;12318;51.262;7.066;2023-05-13T08:52:51;18.60;75.80
24162;DHT22;12318;51.262;7.066;2023-05-13T08:55:18;18.80;74.70
24162;DHT22;12318;51.262;7.066;2023-05-13T08:57:44;19.00;69.80
24162;DHT22;12318;51.262;7.066;2023-05-13T09:00:10;19.00;74.80
24162;DHT22;12318;51.262;7.066;2023-05-13T09:02:36;19.20;72.30
24162;DHT22;12318;51.262;7.066;2023-05-13T09:05:06;19.10;65.10
24162;DHT22;12318;51.262;7.066;2023-05-13T09:07:33;18.80;63.20
24162;DHT22;12318;51.262;7.066;2023-05-13T09:09:59;18.70;63.50
24162;DHT22;12318;51.262;7.066;2023-05-13T09:12:52;18.90;65.30
24162;DHT22;12318;51.262;7.066;2023-05-13T09:15:19;19.10;66.60
24162;DHT22;12318;51.262;7.066;2023-05-13T09:17:50;19.30;67.20
24162;DHT22;12318;51.262;7.066;2023-05-13T09:20:18;19.50;70.50
24162;DHT22;12318;51.262;7.066;2023-05-13T09:22:49;19.30;60.70
24162;DHT22;12318;51.262;7.066;2023-05-13T09:25:16;19.00;61.10
24162;DHT22;12318;51.262;7.066;2023-05-13T09:27:48;19.00;65.40
24162;DHT22;12318;51.262;7.066;2023-05-13T09:30:14;19.10;62.00
24162;DHT22;12318;51.262;7.066;2023-05-13T09:32:40;19.10;61.10
24162;DHT22;12318;51.262;7.066;2023-05-13T09:35:16;19.10;60.50
24162;DHT22;12318;51.262;7.066;2023-05-13T09:37:46;19.00;59.60
24162;DHT22;12318;51.262;7.066;2023-05-13T09:40:14;19.20;60.60
24162;DHT22;12318;51.262;7.066;2023-05-13T09:42:44;19.50;65.40
24162;DHT22;12318;51.262;7.066;2023-05-13T09:45:15;19.50;58.90
24162;DHT22;12318;51.262;7.066;2023-05-13T09:47:41;19.50;59.30
24162;DHT22;12318;51.262;7.066;2023-05-13T09:50:09;19.50;59.00
24162;DHT22;12318;51.262;7.066;2023-05-13T09:52:37;19.70;59.90
24162;DHT22;12318;51.262;7.066;2023-05-13T09:55:06;20.00;59.70
24162;DHT22;12318;51.262;7.066;2023-05-13T09:57:33;19.90;58.20
24162;DHT22;12318;51.262;7.066;2023-05-13T10:00:04;19.80;58.00
24162;DHT22;12318;51.262;7.066;2023-05-13T10:02:30;19.80;58.10
24162;DHT22;12318;51.262;7.066;2023-05-13T10:04:56;19.90;59.60
24162;DHT22;12318;51.262;7.066;2023-05-13T10:07:23;20.00;58.10
24162;DHT22;12318;51.262;7.066;2023-05-13T10:10:00;19.90;56.50
24162;DHT22;12318;51.262;7.066;2023-05-13T10:12:28;20.10;59.80
24162;DHT22;12318;51.262;7.066;2023-05-13T10:14:55;20.00;55.70
24162;DHT22;12318;51.262;7.066;2023-05-13T10:17:23;20.20;58.60
24162;DHT22;12318;51.262;7.066;2023-05-13T10:19:50;20.10;55.50
24162;DHT22;12318;51.262;7.066;2023-05-13T10:24:49;20.20;56.60
24162;DHT22;12318;51.262;7.066;2023-05-13T10:27:17;20.20;56.20
24162;DHT22;12318;51.262;7.066;2023-05-13T10:29:44;19.90;53.00
24162;DHT22;12318;51.262;7.066;2023-05-13T10:32:11;20.20;57.40
24162;DHT22;12318;51.262;7.066;2023-05-13T10:34:37;20.20;55.20
24162;DHT22;12318;51.262;7.066;2023-05-13T10:37:28;20.20;52.90
24162;DHT22;12318;51.262;7.066;2023-05-13T10:45:32;20.20;50.00
24162;DHT22;12318;51.262;7.066;2023-05-13T10:48:05;20.40;50.10
24162;DHT22;12318;51.262;7.066;2023-05-13T10:50:31;20.30;49.30
24162;DHT22;12318;51.262;7.066;2023-05-13T10:53:00;20.50;53.20
24162;DHT22;12318;51.262;7.066;2023-05-13T10:55:27;20.60;55.70
24162;DHT22;12318;51.262;7.066;2023-05-13T10:58:09;20.80;51.40
24162;DHT22;12318;51.262;7.066;2023-05-13T11:00:35;20.90;51.10
24162;DHT22;12318;51.262;7.066;2023-05-13T11:03:13;20.80;52.00
24162;DHT22;12318;51.262;7.066;2023-05-13T11:05:57;20.80;53.00
24162;DHT22;12318;51.262;7.066;2023-05-13T11:08:39;21.00;55.20
24162;DHT22;12318;51.262;7.066;2023-05-13T11:13:54;20.90;49.30
24162;DHT22;12318;51.262;7.066;2023-05-13T11:16:21;20.90;49.40
24162;DHT22;12318;51.262;7.066;2023-05-13T11:18:48;20.80;49.30
24162;DHT22;12318;51.262;7.066;2023-05-13T11:21:16;21.00;50.10
24162;DHT22;12318;51.262;7.066;2023-05-13T11:23:55;20.90;49.70
24162;DHT22;12318;51.262;7.066;2023-05-13T11:26:21;21.00;50.00
24162;DHT22;12318;51.262;7.066;2023-05-13T11:31:22;21.10;49.90
24162;DHT22;12318;51.262;7.066;2023-05-13T11:34:08;21.10;51.80
24162;DHT22;12318;51.262;7.066;2023-05-13T11:36:36;21.20;50.40
24162;DHT22;12318;51.262;7.066;2023-05-13T11:39:21;21.10;47.10
24162;DHT22;12318;51.262;7.066;2023-05-13T11:41:51;21.20;49.20
24162;DHT22;12318;51.262;7.066;2023-05-13T11:44:19;21.20;50.30
24162;DHT22;12318;51.262;7.066;2023-05-13T11:49:37;21.10;50.70
24162;DHT22;12318;51.262;7.066;2023-05-13T11:52:23;21.40;53.00
24162;DHT22;12318;51.262;7.066;2023-05-13T11:57:18;21.30;49.30
24162;DHT22;12318;51.262;7.066;2023-05-13T11:59:58;21.30;47.20
24162;DHT22;12318;51.262;7.066;2023-05-13T12:02:29;21.30;46.60
24162;DHT22;12318;51.262;7.066;2023-05-13T12:04:59;21.30;50.60
24162;DHT22;12318;51.262;7.066;2023-05-13T12:07:26;21.10;47.60
24162;DHT22;12318;51.262;7.066;2023-05-13T12:09:58;20.90;48.90
24162;DHT22;12318;51.262;7.066;2023-05-13T12:12:25;21.10;50.80
24162;DHT22;12318;51.262;7.066;2023-05-13T12:14:54;20.80;45.40
24162;DHT22;12318;51.262;7.066;2023-05-13T12:17:20;20.80;45.80
24162;DHT22;12318;51.262;7.066;2023-05-13T12:20:05;20.90;47.80
24162;DHT22;12318;51.262;7.066;2023-05-13T12:22:33;20.90;46.10
24162;DHT22;12318;51.262;7.066;2023-05-13T12:24:59;20.70;47.20
24162;DHT22;12318;51.262;7.066;2023-05-13T12:27:27;20.40;44.40
24162;DHT22;12318;51.262;7.066;2023-05-13T12:29:56;20.40;41.80
24162;DHT22;12318;51.262;7.066;2023-05-13T12:32:23;20.80;44.50
24162;DHT22;12318;51.262;7.066;2023-05-13T12:34:50;20.90;47.30
24162;DHT22;12318;51.262;7.066;2023-05-13T12:37:16;21.10;45.00
24162;DHT22;12318;51.262;7.066;2023-05-13T12:39:43;21.00;42.90
24162;DHT22;12318;51.262;7.066;2023-05-13T12:42:16;20.60;40.50
24162;DHT22;12318;51.262;7.066;2023-05-13T12:44:45;20.50;36.90
24162;DHT22;12318;51.262;7.066;2023-05-13T12:47:12;20.40;37.80
24162;DHT22;12318;51.262;7.066;2023-05-13T12:49:56;20.50;39.30
24162;DHT22;12318;51.262;7.066;2023-05-13T12:52:27;20.80;40.00
24162;DHT22;12318;51.262;7.066;2023-05-13T12:54:53;21.10;39.80
24162;DHT22;12318;51.262;7.066;2023-05-13T12:57:18;20.80;40.20
24162;DHT22;12318;51.262;7.066;2023-05-13T12:59:45;20.70;39.00
24162;DHT22;12318;51.262;7.066;2023-05-13T13:02:12;20.70;37.90
24162;DHT22;12318;51.262;7.066;2023-05-13T13:04:38;21.10;42.20
24162;DHT22;12318;51.262;7.066;2023-05-13T13:07:04;21.40;37.90
24162;DHT22;12318;51.262;7.066;2023-05-13T13:09:34;21.10;30.00
24162;DHT22;12318;51.262;7.066;2023-05-13T13:12:00;21.00;30.50
24162;DHT22;12318;51.262;7.066;2023-05-13T13:14:26;20.80;33.50
24162;DHT22;12318;51.262;7.066;2023-05-13T13:16:51;20.60;33.60
24162;DHT22;12318;51.262;7.066;2023-05-13T13:19:17;20.50;34.60
24162;DHT22;12318;51.262;7.066;2023-05-13T13:21:43;20.60;34.40
24162;DHT22;12318;51.262;7.066;2023-05-13T13:24:09;20.70;34.10
24162;DHT22;12318;51.262;7.066;2023-05-13T13:26:34;20.60;33.60
24162;DHT22;12318;51.262;7.066;2023-05-13T13:29:00;20.60;34.70
24162;DHT22;12318;51.262;7.066;2023-05-13T13:31:26;20.70;34.70
24162;DHT22;12318;51.262;7.066;2023-05-13T13:33:51;20.90;34.70
24162;DHT22;12318;51.262;7.066;2023-05-13T13:36:18;21.20;33.20
24162;DHT22;12318;51.262;7.066;2023-05-13T13:38:44;21.60;32.90
24162;DHT22;12318;51.262;7.066;2023-05-13T13:41:10;21.70;30.20
24162;DHT22;12318;51.262;7.066;2023-05-13T13:43:36;21.70;30.00
24162;DHT22;12318;51.262;7.066;2023-05-13T13:46:02;22.00;33.50
24162;DHT22;12318;51.262;7.066;2023-05-13T13:48:27;22.10;32.20
24162;DHT22;12318;51.262;7.066;2023-05-13T13:50:54;22.20;29.30
24162;DHT22;12318;51.262;7.066;2023-05-13T13:53:21;21.90;31.70
24162;DHT22;12318;51.262;7.066;2023-05-13T13:55:46;21.80;30.10
24162;DHT22;12318;51.262;7.066;2023-05-13T13:58:12;21.60;29.10
24162;DHT22;12318;51.262;7.066;2023-05-13T14:00:38;21.70;31.40
24162;DHT22;12318;51.262;7.066;2023-05-13T14:03:04;21.60;29.20
24162;DHT22;12318;51.262;7.066;2023-05-13T14:05:30;21.40;28.40
24162;DHT22;12318;51.262;7.066;2023-05-13T14:07:56;20.90;28.30
24162;DHT22;12318;51.262;7.066;2023-05-13T14:10:21;20.70;29.50
24162;DHT22;12318;51.262;7.066;2023-05-13T14:12:47;20.70;28.80
24162;DHT22;12318;51.262;7.066;2023-05-13T14:15:13;20.70;30.10
24162;DHT22;12318;51.262;7.066;2023-05-13T14:17:38;20.80;31.20
24162;DHT22;12318;51.262;7.066;2023-05-13T14:20:05;21.00;33.80
24162;DHT22;12318;51.262;7.066;2023-05-13T14:22:31;21.40;34.30
24162;DHT22;12318;51.262;7.066;2023-05-13T14:24:58;21.40;29.10
24162;DHT22;12318;51.262;7.066;2023-05-13T14:27:23;21.60;31.10
24162;DHT22;12318;51.262;7.066;2023-05-13T14:29:49;21.70;30.20
24162;DHT22;12318;51.262;7.066;2023-05-13T14:32:15;21.30;27.70
24162;DHT22;12318;51.262;7.066;2023-05-13T14:34:41;21.20;27.80
24162;DHT22;12318;51.262;7.066;2023-05-13T14:37:07;21.40;27.10
24162;DHT22;12318;51.262;7.066;2023-05-13T14:39:35;21.50;29.80
24162;DHT22;12318;51.262;7.066;2023-05-13T14:42:01;21.70;32.00
24162;DHT22;12318;51.262;7.066;2023-05-13T14:44:28;21.90;30.10
24162;DHT22;12318;51.262;7.066;2023-05-13T14:46:54;21.70;26.30
24162;DHT22;12318;51.262;7.066;2023-05-13T14:49:20;21.60;26.50
24162;DHT22;12318;51.262;7.066;2023-05-13T14:51:46;21.70;27.90
24162;DHT22;12318;51.262;7.066;2023-05-13T14:54:12;21.80;27.50
24162;DHT22;12318;51.262;7.066;2023-05-13T14:56:37;21.50;26.90
24162;DHT22;12318;51.262;7.066;2023-05-13T14:59:03;21.30;29.20
24162;DHT22;12318;51.262;7.066;2023-05-13T15:01:29;19.40;33.30
24162;DHT22;12318;51.262;7.066;2023-05-13T15:03:55;18.60;40.50
24162;DHT22;12318;51.262;7.066;2023-05-13T15:06:23;17.30;52.10
24162;DHT22;12318;51.262;7.066;2023-05-13T15:08:48;16.30;70.80
24162;DHT22;12318;51.262;7.066;2023-05-13T15:11:14;15.70;88.60
24162;DHT22;12318;51.262;7.066;2023-05-13T15:13:40;15.20;93.00
24162;DHT22;12318;51.262;7.066;2023-05-13T15:16:06;15.00;99.90
24162;DHT22;12318;51.262;7.066;2023-05-13T15:18:32;14.80;99.90
24162;DHT22;12318;51.262;7.066;2023-05-13T15:20:58;14.70;99.90
24162;DHT22;12318;51.262;7.066;2023-05-13T15:23:23;14.60;99.90
24162;DHT22;12318;51.262;7.066;2023-05-13T15:25:50;14.80;99.90
24162;DHT22;12318;51.262;7.066;2023-05-13T15:28:15;14.70;99.90
24162;DHT22;12318;51.262;7.066;2023-05-13T15:30:41;14.70;99.90
24162;DHT22;12318;51.262;7.066;2023-05-13T15:33:07;14.60;99.90
24162;DHT22;12318;51.262;7.066;2023-05-13T15:35:33;14.60;99.90
24162;DHT22;12318;51.262;7.066;2023-05-13T15:37:59;14.60;99.90
24162;DHT22;12318;51.262;7.066;2023-05-13T15:40:24;14.70;99.90
24162;DHT22;12318;51.262;7.066;2023-05-13T15:42:52;14.50;99.90
24162;DHT22;12318;51.262;7.066;2023-05-13T15:45:17;14.40;99.90
24162;DHT22;12318;51.262;7.066;2023-05-13T15:47:43;14.50;99.90
24162;DHT22;12318;51.262;7.066;2023-05-13T15:50:09;14.40;99.90
24162;DHT22;12318;51.262;7.066;2023-05-13T15:52:46;14.50;99.90
24162;DHT22;12318;51.262;7.066;2023-05-13T15:55:12;14.60;99.90
24162;DHT22;12318;51.262;7.066;2023-05-13T15:57:38;14.70;99.90
24162;DHT22;12318;51.262;7.066;2023-05-13T16:00:10;14.70;99.90
24162;DHT22;12318;51.262;7.066;2023-05-13T16:02:43;15.00;99.90
24162;DHT22;12318;51.262;7.066;2023-05-13T16:05:09;15.20;99.90
24162;DHT22;12318;51.262;7.066;2023-05-13T16:07:40;15.30;99.90